createdAt,value
2023-05-25T00:01:54.339Z,12.17
2023-05-25T00:04:26.991Z,12.13
2023-05-25T00:06:54.934Z,12.13
2023-05-25T00:09:24.745Z,12.12
2023-05-25T00:11:53.044Z,12.12
2023-05-25T00:14:21.356Z,12.12
2023-05-25T00:16:49.375Z,12.13
2023-05-25T00:19:18.651Z,12.15
2023-05-25T00:21:48.353Z,12.17
2023-05-25T00:24:16.051Z,12.20
2023-05-25T00:26:43.728Z,12.24
2023-05-25T00:29:12.787Z,12.26
2023-05-25T00:31:40.574Z,12.30
2023-05-25T00:34:09.073Z,12.33
2023-05-25T00:36:36.889Z,12.35
2023-05-25T00:39:04.641Z,12.38
2023-05-25T00:41:33.505Z,12.41
2023-05-25T00:44:01.229Z,12.43
2023-05-25T00:46:29.784Z,12.45
2023-05-25T00:48:57.654Z,12.48
2023-05-25T00:51:26.836Z,12.49
2023-05-25T00:53:54.583Z,12.49
2023-05-25T00:56:28.483Z,12.54
2023-05-25T00:59:00.899Z,12.56
2023-05-25T01:01:33.719Z,12.60
2023-05-25T01:04:03.385Z,12.61
2023-05-25T01:06:33.379Z,12.64
2023-05-25T01:09:04.328Z,12.67
2023-05-25T01:11:35.109Z,12.68
2023-05-25T01:14:03.462Z,12.68
2023-05-25T01:16:32.118Z,12.70
2023-05-25T01:19:02.927Z,12.71
2023-05-25T01:22:11.179Z,12.72
2023-05-25T01:24:56.203Z,12.73
2023-05-25T01:27:46.990Z,12.74
2023-05-25T01:30:16.966Z,12.74
2023-05-25T01:32:45.692Z,12.76
2023-05-25T01:35:14.895Z,12.77
2023-05-25T01:37:46.859Z,12.78
2023-05-25T01:40:15.741Z,12.79
2023-05-25T01:42:43.539Z,12.79
2023-05-25T01:45:13.418Z,12.77
2023-05-25T01:48:13.649Z,12.77
2023-05-25T01:50:53.682Z,12.75
2023-05-25T01:53:45.832Z,12.73
2023-05-25T01:56:14.430Z,12.72
2023-05-25T01:58:47.311Z,12.72
2023-05-25T02:01:17.253Z,12.71
2023-05-25T02:03:49.063Z,12.71
2023-05-25T02:06:17.008Z,12.71
2023-05-25T02:08:45.831Z,12.72
2023-05-25T02:11:14.794Z,12.73
2023-05-25T02:13:42.664Z,12.74
2023-05-25T02:16:10.493Z,12.72
2023-05-25T02:18:38.284Z,12.74
2023-05-25T02:21:06.050Z,12.75
2023-05-25T02:23:33.750Z,12.76
2023-05-25T02:26:01.429Z,12.76
2023-05-25T02:28:29.237Z,12.75
2023-05-25T02:30:56.941Z,12.73
2023-05-25T02:33:24.713Z,12.73
2023-05-25T02:35:52.393Z,12.73
2023-05-25T02:38:20.185Z,12.73
2023-05-25T02:40:47.906Z,12.72
2023-05-25T02:43:15.716Z,12.72
2023-05-25T02:45:44.968Z,12.72
2023-05-25T02:48:13.528Z,12.72
2023-05-25T02:50:42.186Z,12.70
2023-05-25T02:53:12.506Z,12.71
2023-05-25T02:55:40.557Z,12.72
2023-05-25T02:58:10.442Z,12.75
2023-05-25T03:00:50.771Z,12.76
2023-05-25T03:03:18.992Z,12.78
2023-05-25T03:05:49.136Z,12.80
2023-05-25T03:08:17.350Z,12.81
2023-05-25T03:10:45.518Z,12.82
2023-05-25T03:13:13.384Z,12.83
2023-05-25T03:15:41.109Z,12.84
2023-05-25T03:18:08.920Z,12.84
2023-05-25T03:20:38.504Z,12.87
2023-05-25T03:23:06.421Z,12.87
2023-05-25T03:25:34.392Z,12.86
2023-05-25T03:28:02.357Z,12.88
2023-05-25T03:30:30.687Z,12.88
2023-05-25T03:32:58.866Z,12.90
2023-05-25T03:35:30.829Z,12.93
2023-05-25T03:37:58.653Z,12.93
2023-05-25T03:40:26.423Z,12.95
2023-05-25T03:42:55.392Z,12.98
2023-05-25T03:45:23.167Z,12.99
2023-05-25T03:47:52.028Z,13.00
2023-05-25T03:50:21.445Z,13.02
2023-05-25T03:52:49.630Z,13.04
2023-05-25T03:55:17.803Z,13.04
2023-05-25T03:57:45.932Z,13.07
2023-05-25T04:00:14.606Z,13.07
2023-05-25T04:02:43.814Z,13.07
2023-05-25T04:05:11.641Z,13.06
2023-05-25T04:07:40.756Z,13.06
2023-05-25T04:10:09.207Z,13.07
2023-05-25T04:12:37.710Z,13.08
2023-05-25T04:15:09.201Z,13.09
2023-05-25T04:17:46.796Z,13.09
2023-05-25T04:20:14.585Z,13.10
2023-05-25T04:22:43.960Z,13.10
2023-05-25T04:25:11.675Z,13.11
2023-05-25T04:27:39.344Z,13.10
2023-05-25T04:30:11.180Z,13.13
2023-05-25T04:33:03.054Z,13.17
2023-05-25T04:35:36.802Z,13.21
2023-05-25T04:38:05.048Z,13.23
2023-05-25T04:40:35.489Z,13.25
2023-05-25T04:43:05.128Z,13.26
2023-05-25T04:45:33.428Z,13.26
2023-05-25T04:48:03.090Z,13.29
2023-05-25T04:50:30.924Z,13.29
2023-05-25T04:52:58.685Z,13.28
2023-05-25T04:55:26.535Z,13.32
2023-05-25T04:57:55.343Z,13.37
2023-05-25T05:00:24.046Z,13.39
2023-05-25T05:02:56.609Z,13.40
2023-05-25T05:05:24.813Z,13.40
2023-05-25T05:07:54.004Z,13.40
2023-05-25T05:10:22.083Z,13.40
2023-05-25T05:12:54.251Z,13.40
2023-05-25T05:15:22.200Z,13.44
2023-05-25T05:17:50.918Z,13.45
2023-05-25T05:20:19.037Z,13.46
2023-05-25T05:22:46.961Z,13.46
2023-05-25T05:25:14.798Z,13.51
2023-05-25T05:27:42.508Z,13.52
2023-05-25T05:30:33.086Z,13.55
2023-05-25T05:33:01.865Z,13.61
2023-05-25T05:35:32.942Z,13.67
2023-05-25T05:38:10.969Z,13.70
2023-05-25T05:40:39.116Z,13.70
2023-05-25T05:43:10.967Z,13.72
2023-05-25T05:45:38.965Z,13.71
2023-05-25T05:48:11.283Z,13.74
2023-05-25T05:50:42.044Z,13.77
2023-05-25T05:53:11.356Z,13.82
2023-05-25T05:55:39.369Z,13.88
2023-05-25T05:58:07.060Z,13.92
2023-05-25T06:00:34.815Z,13.99
2023-05-25T06:03:02.620Z,14.05
2023-05-25T06:05:31.255Z,14.10
2023-05-25T06:07:59.294Z,14.11
2023-05-25T06:10:27.005Z,14.15
2023-05-25T06:12:54.932Z,14.16
2023-05-25T06:15:22.744Z,14.18
2023-05-25T06:17:51.397Z,14.18
2023-05-25T06:20:19.278Z,14.19
2023-05-25T06:22:47.252Z,14.17
2023-05-25T06:25:16.527Z,14.20
2023-05-25T06:27:44.805Z,14.17
2023-05-25T06:30:13.014Z,14.19
2023-05-25T06:32:43.249Z,14.21
2023-05-25T06:35:17.374Z,14.20
2023-05-25T06:37:49.772Z,14.24
2023-05-25T06:40:19.170Z,14.27
2023-05-25T06:42:47.048Z,14.29
2023-05-25T06:45:42.156Z,14.35
2023-05-25T06:48:10.064Z,14.40
2023-05-25T06:50:37.873Z,14.43
2023-05-25T06:53:06.158Z,14.49
2023-05-25T06:55:33.825Z,14.52
2023-05-25T06:58:01.492Z,14.57
2023-05-25T07:00:29.280Z,14.63
2023-05-25T07:02:57.060Z,14.69
2023-05-25T07:05:24.992Z,14.79
2023-05-25T07:07:52.811Z,14.84
2023-05-25T07:10:20.612Z,14.89
2023-05-25T07:12:48.307Z,14.93
2023-05-25T07:15:16.397Z,14.97
2023-05-25T07:17:45.186Z,15.01
2023-05-25T07:20:13.337Z,15.07
2023-05-25T07:22:42.239Z,15.14
2023-05-25T07:25:10.159Z,15.16
2023-05-25T07:27:38.013Z,15.19
2023-05-25T07:30:06.617Z,15.28
2023-05-25T07:32:34.477Z,15.35
2023-05-25T07:35:03.442Z,15.41
2023-05-25T07:37:31.238Z,15.44
2023-05-25T07:39:58.915Z,15.51
2023-05-25T07:42:33.757Z,15.58
2023-05-25T07:45:02.234Z,15.64
2023-05-25T07:47:30.139Z,15.71
2023-05-25T07:49:58.148Z,15.81
2023-05-25T07:52:25.866Z,15.96
2023-05-25T07:54:53.850Z,16.07
2023-05-25T07:57:21.774Z,16.21
2023-05-25T07:59:49.558Z,16.32
2023-05-25T08:02:17.296Z,16.40
2023-05-25T08:04:45.274Z,16.54
2023-05-25T08:07:13.740Z,16.64
2023-05-25T08:09:41.494Z,16.73
2023-05-25T08:12:30.757Z,16.77
2023-05-25T08:14:56.749Z,16.76
2023-05-25T08:17:24.823Z,16.78
2023-05-25T08:19:52.652Z,16.83
2023-05-25T08:22:20.390Z,16.86
2023-05-25T08:24:48.104Z,16.91
2023-05-25T08:27:16.612Z,16.89
2023-05-25T08:29:44.298Z,16.89
2023-05-25T08:32:12.148Z,16.95
2023-05-25T08:34:41.963Z,16.98
2023-05-25T08:37:09.654Z,17.12
2023-05-25T08:39:37.372Z,17.44
2023-05-25T08:42:07.076Z,17.71
2023-05-25T08:44:36.861Z,17.81
2023-05-25T08:47:08.251Z,17.95
2023-05-25T08:49:38.861Z,18.10
2023-05-25T08:52:13.577Z,18.22
2023-05-25T08:54:45.212Z,18.35
2023-05-25T08:57:44.624Z,18.47
2023-05-25T09:00:15.681Z,18.58
2023-05-25T09:03:02.399Z,18.64
2023-05-25T09:05:30.767Z,18.73
2023-05-25T09:07:58.995Z,18.84
2023-05-25T09:10:28.031Z,18.96
2023-05-25T09:12:56.297Z,19.17
2023-05-25T09:15:24.105Z,19.58
2023-05-25T09:17:51.882Z,19.94
2023-05-25T09:20:20.290Z,20.30
2023-05-25T09:22:48.222Z,20.77
2023-05-25T09:25:22.732Z,21.29
2023-05-25T09:27:51.731Z,21.70
2023-05-25T09:30:19.554Z,22.11
2023-05-25T09:32:47.348Z,22.57
2023-05-25T09:35:15.861Z,22.89
2023-05-25T09:37:45.200Z,22.99
2023-05-25T09:40:14.797Z,23.05
2023-05-25T09:42:43.137Z,23.09
2023-05-25T09:45:11.149Z,23.09
2023-05-25T09:47:40.611Z,23.17
2023-05-25T09:50:09.217Z,23.45
2023-05-25T09:52:37.056Z,23.62
2023-05-25T09:55:10.399Z,23.66
2023-05-25T09:57:39.048Z,23.56
2023-05-25T10:00:08.612Z,23.52
2023-05-25T10:02:39.388Z,23.49
2023-05-25T10:05:09.358Z,23.67
2023-05-25T10:07:40.413Z,24.06
2023-05-25T10:10:10.277Z,24.46
2023-05-25T10:12:41.052Z,24.81
2023-05-25T10:15:12.639Z,25.03
2023-05-25T10:17:45.951Z,25.39
2023-05-25T10:20:15.701Z,25.66
2023-05-25T10:23:08.244Z,26.00
2023-05-25T10:25:46.832Z,26.38
2023-05-25T10:28:22.007Z,26.67
2023-05-25T10:30:51.022Z,26.95
2023-05-25T10:33:21.048Z,27.28
2023-05-25T10:36:08.567Z,27.61
2023-05-25T10:38:40.192Z,27.74
2023-05-25T10:41:11.200Z,27.71
2023-05-25T10:43:41.038Z,27.66
2023-05-25T10:46:09.571Z,27.54
2023-05-25T10:48:38.637Z,27.43
2023-05-25T10:51:11.812Z,27.26
2023-05-25T10:53:45.914Z,27.09
2023-05-25T10:56:14.576Z,26.93
2023-05-25T10:58:44.293Z,27.01
2023-05-25T11:01:13.935Z,27.14
2023-05-25T11:03:45.330Z,27.24
2023-05-25T11:06:17.836Z,27.21
2023-05-25T11:09:06.592Z,27.32
2023-05-25T11:11:43.255Z,27.52
2023-05-25T11:14:27.756Z,27.51
2023-05-25T11:17:13.120Z,27.52
2023-05-25T11:19:50.777Z,27.54
2023-05-25T11:22:23.001Z,27.75
2023-05-25T11:24:52.436Z,27.98
2023-05-25T11:27:24.373Z,28.24
2023-05-25T11:29:53.744Z,28.53
2023-05-25T11:32:23.011Z,28.78
2023-05-25T11:34:54.023Z,28.96
2023-05-25T12:01:23.565Z,31.34
2023-05-25T12:03:56.944Z,31.37
2023-05-25T12:06:33.270Z,31.26
2023-05-25T12:09:01.025Z,31.18
2023-05-25T12:11:35.831Z,30.82
2023-05-25T12:14:04.385Z,30.47
2023-05-25T12:16:34.145Z,30.37
2023-05-25T12:19:01.363Z,30.17
2023-05-25T12:21:28.275Z,30.02
2023-05-25T12:23:55.279Z,30.03
2023-05-25T12:26:22.100Z,29.80
2023-05-25T12:29:06.544Z,29.62
2023-05-25T12:31:34.993Z,29.46
2023-05-25T12:34:05.920Z,29.41
2023-05-25T12:36:52.554Z,29.27
2023-05-25T12:39:31.117Z,29.13
2023-05-25T12:42:00.032Z,29.00
2023-05-25T12:44:28.175Z,28.92
2023-05-25T12:46:55.565Z,28.64
2023-05-25T12:49:30.750Z,28.37
2023-05-25T12:51:58.840Z,28.36
2023-05-25T12:54:54.348Z,28.23
2023-05-25T12:57:20.834Z,28.06
2023-05-25T12:59:47.574Z,27.99
2023-05-25T13:02:14.460Z,27.96
2023-05-25T13:04:41.440Z,27.78
2023-05-25T13:07:09.329Z,27.78
2023-05-25T13:09:36.434Z,27.73
2023-05-25T13:12:03.995Z,27.56
2023-05-25T13:14:30.486Z,27.37
2023-05-25T13:16:57.364Z,27.25
2023-05-25T13:19:25.302Z,27.16
2023-05-25T13:21:52.461Z,27.18
2023-05-25T13:24:19.151Z,27.18
2023-05-25T13:26:48.175Z,27.19
2023-05-25T13:29:16.713Z,27.19
2023-05-25T13:31:43.379Z,27.20
2023-05-25T13:34:10.095Z,27.22
2023-05-25T13:36:36.549Z,27.29
2023-05-25T13:39:04.607Z,27.28
2023-05-25T13:41:31.754Z,27.21
2023-05-25T13:43:59.877Z,27.03
2023-05-25T13:46:34.149Z,26.85
2023-05-25T13:49:01.764Z,26.85
2023-05-25T13:51:28.226Z,26.85
2023-05-25T13:53:55.013Z,26.79
2023-05-25T13:56:21.734Z,26.65
2023-05-25T13:58:48.367Z,26.53
2023-05-25T14:01:15.063Z,26.50
2023-05-25T14:03:42.163Z,26.47
2023-05-25T14:06:09.010Z,26.46
2023-05-25T14:08:35.467Z,26.37
2023-05-25T14:11:02.417Z,26.30
2023-05-25T14:13:28.963Z,26.27
2023-05-25T14:15:55.646Z,26.23
2023-05-25T14:18:22.206Z,26.19
2023-05-25T14:20:49.114Z,26.11
2023-05-25T14:23:16.656Z,26.00
2023-05-25T14:25:46.354Z,25.87
2023-05-25T14:28:13.138Z,25.74
2023-05-25T14:30:39.729Z,25.73
2023-05-25T14:33:07.052Z,25.71
2023-05-25T14:35:33.777Z,25.60
2023-05-25T14:38:00.239Z,25.46
2023-05-25T14:40:26.747Z,25.23
2023-05-25T14:42:54.831Z,25.15
2023-05-25T14:45:21.231Z,24.97
2023-05-25T14:47:47.968Z,24.77
2023-05-25T14:50:14.482Z,24.69
2023-05-25T14:52:41.339Z,24.66
2023-05-25T14:55:13.114Z,24.69
2023-05-25T15:10:32.168Z,24.19
2023-05-25T15:13:00.054Z,24.27
2023-05-25T15:15:28.024Z,24.40
2023-05-25T15:17:55.936Z,24.44
2023-05-25T15:20:24.005Z,24.46
2023-05-25T15:22:53.963Z,24.47
2023-05-25T15:25:34.935Z,24.39
2023-05-25T15:28:04.111Z,24.30
2023-05-25T15:30:33.252Z,24.21
2023-05-25T15:33:02.086Z,24.05
2023-05-25T15:35:32.862Z,23.99
2023-05-25T15:38:01.506Z,23.99
2023-05-25T15:40:29.702Z,24.07
2023-05-25T15:42:58.018Z,24.07
2023-05-25T15:45:26.436Z,24.11
2023-05-25T15:47:54.420Z,24.16
2023-05-25T15:50:22.254Z,24.35
2023-05-25T15:52:50.301Z,24.57
2023-05-25T15:55:18.307Z,24.67
2023-05-25T15:57:46.240Z,24.72
2023-05-25T16:00:14.548Z,24.76
2023-05-25T16:02:42.297Z,24.80
2023-05-25T16:05:10.125Z,24.81
2023-05-25T16:07:37.965Z,24.72
2023-05-25T16:10:06.356Z,24.69
2023-05-25T16:12:34.125Z,24.66
2023-05-25T16:15:01.909Z,24.58
2023-05-25T16:17:30.150Z,24.53
2023-05-25T16:19:58.067Z,24.47
2023-05-25T16:22:26.244Z,24.37
2023-05-25T16:24:54.280Z,24.28
2023-05-25T16:27:22.058Z,24.19
2023-05-25T16:29:50.026Z,24.10
2023-05-25T16:32:18.534Z,24.02
2023-05-25T16:34:46.901Z,23.94
2023-05-25T16:37:14.847Z,23.88
2023-05-25T16:39:42.810Z,23.78
2023-05-25T16:42:10.830Z,23.69
2023-05-25T16:44:38.852Z,23.59
2023-05-25T16:47:06.735Z,23.47
2023-05-25T16:49:34.957Z,23.36
2023-05-25T16:52:03.044Z,23.23
2023-05-25T16:54:31.211Z,23.12
2023-05-25T16:56:59.359Z,23.06
2023-05-25T16:59:27.247Z,23.01
2023-05-25T17:01:55.881Z,22.97
2023-05-25T17:04:23.742Z,22.91
2023-05-25T17:06:51.791Z,22.82
2023-05-25T17:09:21.186Z,22.74
2023-05-25T17:11:48.982Z,22.64
2023-05-25T17:14:17.120Z,22.56
2023-05-25T17:16:44.957Z,22.49
2023-05-25T17:19:15.001Z,22.42
2023-05-25T17:21:43.567Z,22.34
2023-05-25T17:24:11.358Z,22.28
2023-05-25T17:26:39.222Z,22.21
2023-05-25T17:29:07.545Z,22.13
2023-05-25T17:31:35.507Z,22.06
2023-05-25T17:34:03.969Z,21.97
2023-05-25T17:36:32.388Z,21.85
2023-05-25T17:39:00.620Z,21.76
2023-05-25T17:41:29.530Z,21.68
2023-05-25T17:43:57.958Z,21.61
2023-05-25T17:46:26.337Z,21.52
2023-05-25T17:48:54.813Z,21.44
2023-05-25T17:51:22.965Z,21.35
2023-05-25T17:53:51.439Z,21.27
2023-05-25T17:56:19.871Z,21.15
2023-05-25T17:58:48.485Z,21.07
2023-05-25T18:01:17.162Z,20.96
2023-05-25T18:03:45.801Z,20.85
2023-05-25T18:06:15.146Z,20.75
2023-05-25T18:08:44.272Z,20.66
2023-05-25T18:11:12.392Z,20.58
2023-05-25T18:13:40.686Z,20.45
2023-05-25T18:16:09.296Z,20.39
2023-05-25T18:18:37.104Z,20.28
2023-05-25T18:21:05.803Z,20.18
2023-05-25T18:23:34.332Z,20.09
2023-05-25T18:26:04.394Z,20.00
2023-05-25T18:28:32.589Z,19.90
2023-05-25T18:31:00.742Z,19.81
2023-05-25T18:33:29.762Z,19.72
2023-05-25T18:35:58.105Z,19.60
2023-05-25T18:38:26.054Z,19.51
2023-05-25T18:40:54.064Z,19.42
2023-05-25T18:43:22.441Z,19.32
2023-05-25T18:45:50.672Z,19.22
2023-05-25T18:48:19.869Z,19.13
2023-05-25T18:50:48.286Z,19.04
2023-05-25T18:53:17.097Z,18.95
2023-05-25T18:55:45.998Z,18.87
2023-05-25T18:58:14.456Z,18.78
2023-05-25T19:00:42.224Z,18.70
2023-05-25T19:03:11.011Z,18.62
2023-05-25T19:05:39.300Z,18.54
2023-05-25T19:08:08.330Z,18.46
2023-05-25T19:10:36.482Z,18.39
2023-05-25T19:13:06.724Z,18.32
2023-05-25T19:15:35.002Z,18.25
2023-05-25T19:18:04.630Z,18.18
2023-05-25T19:20:33.963Z,18.12
2023-05-25T19:23:04.354Z,18.07
2023-05-25T19:25:32.613Z,18.01
2023-05-25T19:28:02.876Z,17.95
2023-05-25T19:30:32.249Z,17.90
2023-05-25T19:33:00.496Z,17.84
2023-05-25T19:35:28.770Z,17.78
2023-05-25T19:37:56.536Z,17.74
2023-05-25T19:40:24.824Z,17.68
2023-05-25T19:42:53.078Z,17.64
2023-05-25T19:45:21.080Z,17.59
2023-05-25T19:47:50.019Z,17.56
2023-05-25T19:50:19.195Z,17.53
2023-05-25T19:52:47.847Z,17.48
2023-05-25T19:55:15.974Z,17.45
2023-05-25T19:57:46.315Z,17.43
2023-05-25T20:00:25.537Z,17.39
2023-05-25T20:02:55.891Z,17.35
2023-05-25T20:05:24.582Z,17.32
2023-05-25T20:07:52.797Z,17.29
2023-05-25T20:10:20.779Z,17.26
2023-05-25T20:12:49.034Z,17.23
2023-05-25T20:15:18.429Z,17.19
2023-05-25T20:17:46.466Z,17.16
2023-05-25T20:20:15.706Z,17.12
2023-05-25T20:22:43.926Z,17.07
2023-05-25T20:25:12.273Z,17.02
2023-05-25T20:27:40.107Z,16.99
2023-05-25T20:30:08.827Z,16.95
2023-05-25T20:32:38.479Z,16.90
2023-05-25T20:35:06.600Z,16.85
2023-05-25T20:37:35.393Z,16.83
2023-05-25T20:40:06.631Z,16.77
2023-05-25T20:42:34.508Z,16.73
2023-05-25T20:45:02.390Z,16.69
2023-05-25T20:47:30.662Z,16.69
2023-05-25T20:49:59.229Z,16.65
2023-05-25T20:52:26.984Z,16.62
2023-05-25T20:54:54.975Z,16.58
2023-05-25T20:57:22.866Z,16.57
2023-05-25T20:59:51.739Z,16.55
2023-05-25T21:02:20.093Z,16.54
2023-05-25T21:04:48.115Z,16.49
2023-05-25T21:07:15.960Z,16.51
2023-05-25T21:09:43.714Z,16.51
2023-05-25T21:12:11.559Z,16.51
2023-05-25T21:14:39.377Z,16.52
2023-05-25T21:17:07.177Z,16.49
2023-05-25T21:19:34.966Z,16.54
2023-05-25T21:22:02.939Z,16.54
2023-05-25T21:24:30.860Z,16.57
2023-05-25T21:26:58.706Z,16.59
2023-05-25T21:29:26.414Z,16.61
2023-05-25T21:31:54.237Z,16.62
2023-05-25T21:34:22.288Z,16.64
2023-05-25T21:36:50.177Z,16.66
2023-05-25T21:39:18.144Z,16.68
2023-05-25T21:41:45.900Z,16.70
2023-05-25T21:44:13.708Z,16.71
2023-05-25T21:46:41.486Z,16.72
2023-05-25T21:49:09.264Z,16.74
2023-05-25T21:51:37.376Z,16.75
2023-05-25T21:54:05.405Z,16.76
2023-05-25T21:56:33.960Z,16.78
2023-05-25T21:59:01.674Z,16.80
2023-05-25T22:01:29.545Z,16.83
2023-05-25T22:03:57.482Z,16.85
2023-05-25T22:06:25.341Z,16.87
2023-05-25T22:08:53.108Z,16.89
2023-05-25T22:11:22.181Z,16.91
2023-05-25T22:13:50.371Z,16.90
2023-05-25T22:16:18.215Z,16.95
2023-05-25T22:18:46.022Z,16.95
2023-05-25T22:21:14.815Z,16.98
2023-05-25T22:23:42.567Z,16.99
2023-05-25T22:26:10.379Z,17.00
2023-05-25T22:28:38.179Z,17.00
2023-05-25T22:31:06.036Z,17.00
2023-05-25T22:33:33.856Z,17.00
2023-05-25T22:36:01.714Z,17.00
2023-05-25T22:38:29.532Z,17.00
2023-05-25T22:40:57.320Z,16.99
2023-05-25T22:43:26.997Z,16.97
2023-05-25T22:45:54.762Z,16.95
2023-05-25T22:48:22.472Z,16.93
2023-05-25T22:50:50.292Z,16.90
2023-05-25T22:53:18.129Z,16.84
2023-05-25T22:55:47.554Z,16.78
2023-05-25T22:58:16.574Z,16.76
2023-05-25T23:00:44.370Z,16.72
2023-05-25T23:03:12.293Z,16.68
2023-05-25T23:05:40.234Z,16.65
2023-05-25T23:08:09.314Z,16.61
2023-05-25T23:10:37.014Z,16.57
2023-05-25T23:13:06.288Z,16.51
2023-05-25T23:15:40.069Z,16.44
2023-05-25T23:18:08.288Z,16.38
2023-05-25T23:20:36.219Z,16.33
2023-05-25T23:23:04.167Z,16.31
2023-05-25T23:25:32.131Z,16.28
2023-05-25T23:27:59.912Z,16.26
2023-05-25T23:30:27.694Z,16.23
2023-05-25T23:32:55.575Z,16.20
2023-05-25T23:35:23.635Z,16.17
2023-05-25T23:37:52.179Z,16.10
2023-05-25T23:40:19.988Z,16.08
2023-05-25T23:42:48.933Z,16.04
2023-05-25T23:45:16.851Z,16.00
2023-05-25T23:47:44.885Z,15.94
2023-05-25T23:50:12.721Z,15.92
2023-05-25T23:52:41.543Z,15.85
2023-05-25T23:55:10.941Z,15.79
2023-05-25T23:57:39.356Z,15.71
